Map

Track Data

SID SEASON NUMBER BASIN SUBBASIN NAME ISO_TIME NATURE LAT LON WMO_WIND WMO_PRES WMO_AGENCY TRACK_TYPE DIST2LAND LANDFALL IFLAG USA_AGENCY USA_ATCF_ID USA_LAT USA_LON USA_RECORD USA_STATUS USA_WIND USA_PRES USA_SSHS USA_R34_NE USA_R34_SE USA_R34_SW USA_R34_NW USA_R50_NE USA_R50_SE USA_R50_SW USA_R50_NW USA_R64_NE USA_R64_SE USA_R64_SW USA_R64_NW USA_POCI USA_ROCI USA_RMW USA_EYE TOKYO_LAT TOKYO_LON TOKYO_GRADE TOKYO_WIND TOKYO_PRES TOKYO_R50_DIR TOKYO_R50_LONG TOKYO_R50_SHORT TOKYO_R30_DIR TOKYO_R30_LONG TOKYO_R30_SHORT TOKYO_LAND CMA_LAT CMA_LON CMA_CAT CMA_WIND CMA_PRES HKO_LAT HKO_LON HKO_CAT HKO_WIND HKO_PRES NEWDELHI_LAT NEWDELHI_LON NEWDELHI_GRADE NEWDELHI_WIND NEWDELHI_PRES NEWDELHI_CI NEWDELHI_DP NEWDELHI_POCI REUNION_LAT REUNION_LON REUNION_TYPE REUNION_WIND REUNION_PRES REUNION_TNUM REUNION_CI REUNION_RMW REUNION_R34_NE REUNION_R34_SE REUNION_R34_SW REUNION_R34_NW REUNION_R50_NE REUNION_R50_SE REUNION_R50_SW REUNION_R50_NW REUNION_R64_NE REUNION_R64_SE REUNION_R64_SW REUNION_R64_NW BOM_LAT BOM_LON BOM_TYPE BOM_WIND BOM_PRES BOM_TNUM BOM_CI BOM_RMW BOM_R34_NE BOM_R34_SE BOM_R34_SW BOM_R34_NW BOM_R50_NE BOM_R50_SE BOM_R50_SW BOM_R50_NW BOM_R64_NE BOM_R64_SE BOM_R64_SW BOM_R64_NW BOM_ROCI BOM_POCI BOM_EYE BOM_POS_METHOD BOM_PRES_METHOD NADI_LAT NADI_LON NADI_CAT NADI_WIND NADI_PRES WELLINGTON_LAT WELLINGTON_LON WELLINGTON_WIND WELLINGTON_PRES DS824_LAT DS824_LON DS824_STAGE DS824_WIND DS824_PRES TD9636_LAT TD9636_LON TD9636_STAGE TD9636_WIND TD9636_PRES TD9635_LAT TD9635_LON TD9635_WIND TD9635_PRES TD9635_ROCI NEUMANN_LAT NEUMANN_LON NEUMANN_CLASS NEUMANN_WIND NEUMANN_PRES MLC_LAT MLC_LON MLC_CLASS MLC_WIND MLC_PRES USA_GUST BOM_GUST BOM_GUST_PER REUNION_GUST REUNION_GUST_PER USA_SEAHGT USA_SEARAD_NE USA_SEARAD_SE USA_SEARAD_SW USA_SEARAD_NW STORM_SPEED STORM_DIR
1977357S16146 1978 121 SP EA NOT_NAMED 1977-12-22 12:00:00 TS -16.4000 145.900 main 44 44 O________O____ jtwc_sh SH071978 -16.4000 145.900 -1 -16.4000 145.900 TC 14 107
1977357S16146 1978 121 SP EA NOT_NAMED 1977-12-22 15:00:00 TS -16.6155 146.620 main 86 86 P________P____ SH071978 -16.6155 146.620 -1 -16.6155 146.620 TC 14 107
1977357S16146 1978 121 SP EA NOT_NAMED 1977-12-22 18:00:00 TS -16.8000 147.300 main 144 144 O________O____ jtwc_sh SH071978 -16.8000 147.300 -1 -16.8000 147.300 TC 13 104
1977357S16146 1978 121 SP EA NOT_NAMED 1977-12-22 21:00:00 TS -16.9299 147.903 main 199 199 P________P____ SH071978 -16.9299 147.903 -1 -16.9299 147.903 TC 11 101
1977357S16146 1978 121 SP EA NOT_NAMED 1977-12-23 00:00:00 TS -17.0000 148.400 main 248 248 O________OO_O_ jtwc_sh SH071978 -17.0000 148.400 -1 -17.0000 148.400 TC 25 -17.0000 148.400 1 -17.0000 148.400 TC 30 8 95
1977357S16146 1978 121 SP EA NOT_NAMED 1977-12-23 03:00:00 TS -17.0100 148.774 main 290 290 P________PP_P_ SH071978 -17.0148 148.780 -1 -17.0148 148.780 TC 25 -17.0008 148.775 1 -17.0001 148.748 TC 30 7 90
1977357S16146 1978 121 SP EA NOT_NAMED 1977-12-23 06:00:00 TS -17.0002 149.109 main 321 321 O________OP_O_ jtwc_sh SH071978 -17.0000 149.100 -1 -17.0000 149.100 TC 25 -17.0009 149.140 1 -17.0000 149.100 TC 30 7 89
1977357S16146 1978 121 SP EA NOT_NAMED 1977-12-23 09:00:00 TS -17.0002 149.468 main 348 348 P________PP_P_ SH071978 -17.0000 149.465 -1 -17.0000 149.465 TC 25 -17.0006 149.485 1 -17.0000 149.458 TC 30 7 90
1977357S16146 1978 121 SP EA NOT_NAMED 1977-12-23 12:00:00 TS -17.0000 149.800 main 369 369 O________OO_O_ jtwc_sh SH071978 -17.0000 149.800 -1 -17.0000 149.800 TC 25 -17.0000 149.800 1 -17.0000 149.800 TC 30 6 90
1977357S16146 1978 121 SP EA NOT_NAMED 1977-12-23 15:00:00 TS -16.9997 150.072 main 385 385 P________PP_P_ SH071978 -16.9998 150.050 -1 -16.9998 150.050 TC 25 -16.9994 150.082 1 -16.9999 150.107 TC 30 5 90
1977357S16146 1978 121 SP EA NOT_NAMED 1977-12-23 18:00:00 TS -16.9998 150.339 main 396 396 O________OP_O_ jtwc_sh SH071978 -17.0000 150.300 -1 -17.0000 150.300 TC 25 -16.9990 150.355 1 -17.0000 150.400 TC 30 5 90
1977357S16146 1978 121 SP EA NOT_NAMED 1977-12-23 21:00:00 TS -16.9997 150.640 main 414 414 P________PP_P_ SH071978 -16.9999 150.613 -1 -16.9999 150.613 TC 25 -16.9992 150.651 1 -16.9999 150.685 TC 30 6 90
1977357S16146 1978 121 SP EA NOT_NAMED 1977-12-24 00:00:00 TS -17.0000 151.000 main 435 435 O________OO_O_ jtwc_sh SH071978 -17.0000 151.000 -1 -17.0000 151.000 TC 25 -17.0000 151.000 1 -17.0000 151.000 TC 30 8 90
1977357S16146 1978 121 SP EA NOT_NAMED 1977-12-24 03:00:00 TS -17.0000 151.438 main 459 459 P________PP_P_ SH071978 -17.0000 151.478 -1 -17.0000 151.478 TC 25 -17.0002 151.443 1 -16.9998 151.355 TC 30 9 90
1977357S16146 1978 121 SP EA NOT_NAMED 1977-12-24 06:00:00 TS -17.0001 151.935 main 492 492 O________OP_O_ jtwc_sh SH071978 -17.0000 152.000 -1 -17.0000 152.000 TC 25 -17.0003 151.940 1 -17.0000 151.800 TC 30 10 90
1977357S16146 1978 121 SP EA NOT_NAMED 1977-12-24 09:00:00 TS -17.0000 152.463 main 536 536 P________PP_P_ SH071978 -16.9999 152.500 -1 -16.9999 152.500 TC 30 -17.0001 152.468 1 -17.0002 152.385 TC 32 10 90
1977357S16146 1978 121 SP EA NOT_NAMED 1977-12-24 12:00:00 TS -17.0000 153.000 main 576 576 O________OO_O_ jtwc_sh SH071978 -17.0000 153.000 -1 -17.0000 153.000 TC 35 -17.0000 153.000 2 -17.0000 153.000 TC 35 10 90
1977357S16146 1978 121 SP EA NOT_NAMED 1977-12-24 15:00:00 TS -16.9988 153.505 main 617 617 P________PP_P_ SH071978 -16.9999 153.500 -1 -16.9999 153.500 TC 35 -16.9956 153.504 2 -16.9998 153.515 TC 35 10 90
1977357S16146 1978 121 SP EA NOT_NAMED 1977-12-24 18:00:00 TS -16.9980 154.002 main 660 660 O________OP_O_ jtwc_sh SH071978 -17.0000 154.000 -1 -17.0000 154.000 TC 35 -16.9921 154.008 2 -17.0000 154.000 TC 35 10 90
1977357S16146 1978 121 SP EA NOT_NAMED 1977-12-24 21:00:00 TS -16.9980 154.502 main 704 704 P________PP_P_ SH071978 -16.9999 154.500 -1 -16.9999 154.500 TC 35 -16.9925 154.507 2 -16.9999 154.500 TC 35 10 90
1977357S16146 1978 121 SP EA NOT_NAMED 1977-12-25 00:00:00 TS -17.0000 155.000 main 750 750 O________OO_O_ jtwc_sh SH071978 -17.0000 155.000 -1 -17.0000 155.000 TC 35 -17.0000 155.000 2 -17.0000 155.000 TC 35 10 90
1977357S16146 1978 121 SP EA NOT_NAMED 1977-12-25 03:00:00 TS -16.9966 155.501 main 785 785 P________PP_P_ SH071978 -16.9924 155.508 -1 -16.9924 155.508 TC 35 -17.0093 155.482 2 -16.9924 155.508 TC 35 9 90
1977357S16146 1978 121 SP EA NOT_NAMED 1977-12-25 06:00:00 TS -17.0067 155.989 main 819 819 O________OP_O_ jtwc_sh SH071978 -17.0000 156.000 -1 -17.0000 156.000 TC 35 -17.0270 155.958 2 -17.0000 156.000 TC 35 9 93
1977357S16146 1978 121 SP EA NOT_NAMED 1977-12-25 09:00:00 TS -17.0458 156.449 main 848 828 P________PP_P_ SH071978 -17.0423 156.457 -1 -17.0423 156.457 TC 35 -17.0562 156.429 2 -17.0423 156.450 TC 35 9 96
1977357S16146 1978 121 SP EA NOT_NAMED 1977-12-25 12:00:00 TS -17.1000 156.900 main 828 791 O________OO_O_ jtwc_sh SH071978 -17.1000 156.900 -1 -17.1000 156.900 TC 35 -17.1000 156.900 2 -17.1000 156.900 TC 35 9 97
1977357S16146 1978 121 SP EA NOT_NAMED 1977-12-25 15:00:00 TS -17.1469 157.367 main 781 739 P________PP_P_ SH071978 -17.1423 157.343 -1 -17.1423 157.343 TC 35 -17.1604 157.383 2 -17.1425 157.400 TC 35 9 97
1977357S16146 1978 121 SP EA NOT_NAMED 1977-12-25 18:00:00 TS -17.2087 157.841 main 739 687 O________OP_O_ jtwc_sh SH071978 -17.2000 157.800 -1 -17.2000 157.800 TC 35 -17.2348 157.865 2 -17.2000 157.900 TC 35 9 100
1977357S16146 1978 121 SP EA NOT_NAMED 1977-12-25 21:00:00 TS -17.3041 158.324 main 687 636 P________PP_P_ SH071978 -17.3000 158.300 -1 -17.3000 158.300 TC 35 -17.3167 158.339 2 -17.2998 158.357 TC 35 9 102
1977357S16146 1978 121 SP EA NOT_NAMED 1977-12-26 00:00:00 TS -17.4000 158.800 main 636 594 O________OO_O_ jtwc_sh SH071978 -17.4000 158.800 -1 -17.4000 158.800 TC 35 -17.4000 158.800 2 -17.4000 158.800 TC 35 9 99
1977357S16146 1978 121 SP EA NOT_NAMED 1977-12-26 03:00:00 TS -17.4531 159.260 main 585 550 P________PP_P_ SH071978 -17.4499 159.265 -1 -17.4499 159.265 TC 30 -17.4626 159.252 2 -17.4499 159.258 TC 32 9 97
1977357S16146 1978 121 SP EA NOT_NAMED 1977-12-26 06:00:00 TS -17.5068 159.697 main 550 509 O________OP_O_ jtwc_sh SH071978 -17.5000 159.700 -1 -17.5000 159.700 TC 25 -17.5272 159.688 2 -17.5000 159.700 TC 30 8 100
1977357S16146 1978 121 SP MM NOT_NAMED 1977-12-26 09:00:00 TS -17.5933 160.116 main 509 469 P________PP_P_ SH071978 -17.5925 160.122 -1 -17.5925 160.122 TC 25 -17.6033 160.105 2 -17.5849 160.115 TC 30 8 104
1977357S16146 1978 121 SP MM NOT_NAMED 1977-12-26 12:00:00 TS -17.7000 160.500 main 469 437 O________OO_O_ jtwc_sh SH071978 -17.7000 160.500 -1 -17.7000 160.500 TC 25 -17.7000 160.500 1 -17.7000 160.500 TC 30 7 108
1977357S16146 1978 121 SP MM NOT_NAMED 1977-12-26 15:00:00 TS -17.8068 160.820 main 437 406 P________PP_P_ SH071978 -17.7848 160.800 -1 -17.7848 160.800 TC 25 -17.8151 160.823 1 -17.8424 160.858 TC 30 6 112
1977357S16146 1978 121 SP MM NOT_NAMED 1977-12-26 18:00:00 TS -17.9383 161.133 main 406 367 O________OP_O_ jtwc_sh SH071978 -17.9000 161.100 -1 -17.9000 161.100 TC 25 -17.9533 161.134 1 -18.0000 161.200 TC 30 7 116
1977357S16146 1978 121 SP MM NOT_NAMED 1977-12-26 21:00:00 TS -18.1047 161.469 main 359 313 P________PP_P_ SH071978 -18.0847 161.448 -1 -18.0847 161.448 TC 25 -18.1148 161.477 1 -18.1346 161.505 TC 30 8 116
1977357S16146 1978 121 SP MM NOT_NAMED 1977-12-27 00:00:00 TS -18.3000 161.900 main 313 253 O________OO_O_ jtwc_sh SH071978 -18.3000 161.900 -1 -18.3000 161.900 TC 25 -18.3000 161.900 1 -18.3000 161.900 TC 30 11 112
1977357S16146 1978 121 SP MM NOT_NAMED 1977-12-27 03:00:00 TS -18.5059 162.497 main 253 197 P________PP_P_ SH071978 -18.4926 162.513 -1 -18.4926 162.513 TC 25 -18.4957 162.460 1 -18.5427 162.505 TC 30 13 109
1977357S16146 1978 121 SP MM NOT_NAMED 1977-12-27 06:00:00 TS -18.7283 163.176 main 192 148 O________OP_O_ jtwc_sh SH071978 -18.7000 163.200 -1 -18.7000 163.200 TC 25 -18.7130 163.103 1 -18.8000 163.200 TC 30 13 110
1977357S16146 1978 121 SP MM NOT_NAMED 1977-12-27 09:00:00 TS -18.9581 163.827 main 137 116 P________PP_P_ SH071978 -18.9421 163.835 -1 -18.9421 163.835 TC 25 -18.9487 163.794 1 -18.9997 163.843 TC 30 13 111
1977357S16146 1978 121 SP MM NOT_NAMED 1977-12-27 12:00:00 TS -19.2000 164.500 main 119 113 O________OO_O_ jtwc_sh SH071978 -19.2000 164.500 -1 -19.2000 164.500 TC 25 -19.2000 164.500 1 -19.2000 164.500 TC 30 14 110
1977357S16146 1978 121 SP MM NOT_NAMED 1977-12-27 15:00:00 TS -19.4443 165.232 main 124 122 P________PP_P_ SH071978 -19.4426 165.258 -1 -19.4426 165.258 TC 25 -19.4570 165.212 1 -19.4349 165.200 TC 30 15 110
1977357S16146 1978 121 SP MM NOT_NAMED 1977-12-27 18:00:00 TS -19.7071 165.956 main 148 146 O________OP_O_ jtwc_sh SH071978 -19.7000 166.000 -1 -19.7000 166.000 TC 25 -19.7282 165.925 1 -19.7000 165.900 TC 30 14 113
1977357S16146 1978 121 SP MM NOT_NAMED 1977-12-27 21:00:00 TS -19.9969 166.625 main 167 167 P________PP_P_ SH071978 -19.9923 166.653 -1 -19.9923 166.653 TC 25 -20.0103 166.600 1 -19.9925 166.595 TC 30 13 117
1977357S16146 1978 121 SP MM NOT_NAMED 1977-12-28 00:00:00 TS -20.3000 167.200 main 176 172 O________OO_O_ jtwc_sh SH071978 -20.3000 167.200 -1 -20.3000 167.200 TC 25 -20.3000 167.200 1 -20.3000 167.200 TC 30 11 122
1977357S16146 1978 121 SP MM NOT_NAMED 1977-12-28 03:00:00 TS -20.5945 167.645 main 174 174 P________PP_P_ SH071978 -20.5997 167.630 -1 -20.5997 167.630 TC 25 -20.5792 167.680 1 -20.5996 167.638 TC 30 10 128
1977357S16146 1978 121 SP MM NOT_NAMED 1977-12-28 06:00:00 TS -20.8920 168.021 main 175 174 O________OP_O_ jtwc_sh SH071978 -20.9000 168.000 -1 -20.9000 168.000 TC 25 -20.8682 168.084 1 -20.9000 168.000 TC 30 9 130
1977357S16146 1978 121 SP MM NOT_NAMED 1977-12-28 09:00:00 TS -21.1876 168.412 main 182 182 P________PP_P_ SH071978 -21.1924 168.400 -1 -21.1924 168.400 TC 25 -21.1732 168.446 1 -21.1924 168.400 TC 30 9 130
1977357S16146 1978 121 SP MM NOT_NAMED 1977-12-28 12:00:00 TS -21.5000 168.800 main 201 201 O________OO_O_ jtwc_sh SH071978 -21.5000 168.800 -1 -21.5000 168.800 TC 25 -21.5000 168.800 1 -21.5000 168.800 TC 30 10 132
1977357S16146 1978 121 SP MM NOT_NAMED 1977-12-28 15:00:00 TS -21.8392 169.194 main 231 229 P________PP_P_ SH071978 -21.8349 169.200 -1 -21.8349 169.200 TC 25 -21.8520 169.174 1 -21.8349 169.200 TC 30 10 134
1977357S16146 1978 121 SP MM NOT_NAMED 1977-12-28 18:00:00 TS -22.2060 169.593 main 267 267 O________OP_O_ jtwc_sh SH071978 -22.2000 169.600 -1 -22.2000 169.600 TC 25 -22.2240 169.570 1 -22.2000 169.600 TC 30 11 136
1977357S16146 1978 121 SP MM NOT_NAMED 1977-12-28 21:00:00 TS -22.5968 169.995 main 310 310 P________PP_P_ SH071978 -22.5927 170.000 -1 -22.5927 170.000 TC 25 -22.6091 169.981 1 -22.5927 170.000 TC 30 11 137
1977357S16146 1978 121 SP MM NOT_NAMED 1977-12-29 00:00:00 TS -23.0000 170.400 main 357 O________OO_O_ jtwc_sh SH071978 -23.0000 170.400 -1 -23.0000 170.400 TC 25 -23.0000 170.400 6 -23.0000 170.400 TC 30 11 137

Digital Typhoon Data and Search

About IBTrACS Database

This database is a web-friendly format of International Best Track Archive for Climate Stewardship (IBTrACS), a global best track data archive curated by NOAA dating back to 1842.

Updated: 2021-10-21